Карточка аэропорта USTR

Внимание!
Информация на этой странице в стадии наполнения.
Если вы не увидели какой-то информации, или заметили неточность - пожалуйста сообщите нам!
Спасибо!
Команда RU-STAFF
Название аэропортаРощино
Название аэропорта (англ.)Roshschino
Превышение378 ft. (115.2 m.)
Координаты57°10.098', 65°19.002'
Высота перехода700m
Эшелон переходаFL040
Коды ответчика5101-5137
Зона ОрВДТюмень РПИ (USTV)
Данные METARUSTR 100930Z 24004MPS 7000 -SHSN FEW011 OVC033CB M10/M12 Q1033 R30/490238 R21/490238 TEMPO 1000 SHSN VV004
Проноз погоды (TAF)USTR 100757Z 1009/1109 24003G10MPS 3100 -SHSN SCT007 OVC016CB TEMPO 1009/1012 26003G08MPS 1000 SHSN VV005 TEMPO 1012/1106 0500 +SHSN VV003 BECMG 1100/1103 27003G08MPS
NOTAMshow/hide NOTAM
AWOS   TABLE

Информация о ВПП

ВПП Длина ВПП (м.) Покрытие Курс ВПП Частота ILS
302704Асфальтобетон301 
213003Асфальтобетон214110.7
122704Асфальтобетон121 
033003Асфальтобетон34108.3

Диспетчерские позиции

Позывной Наименование органа УВД Частота
USTR_GNDТюмень-Руление119.000
USTR_R_APPТюмень-Круг126.100
USTR_TWRТюмень-Старт118.200



Спутниковое изображение